createdAt,value
2023-10-17T00:01:46.479Z,3.08
2023-10-17T00:06:49.422Z,2.90
2023-10-17T00:11:56.775Z,3.03
2023-10-17T00:16:59.319Z,2.90
2023-10-17T00:22:04.895Z,2.90
2023-10-17T00:27:08.833Z,3.15
2023-10-17T00:32:11.298Z,2.88
2023-10-17T00:37:15.750Z,3.22
2023-10-17T00:42:36.517Z,3.45
2023-10-17T00:47:39.025Z,2.78
2023-10-17T00:52:42.478Z,3.38
2023-10-17T00:57:46.723Z,2.72
2023-10-17T01:02:49.174Z,2.90
2023-10-17T01:07:51.491Z,3.25
2023-10-17T01:13:05.976Z,2.60
2023-10-17T01:18:08.588Z,2.60
2023-10-17T01:23:11.957Z,2.83
2023-10-17T01:28:14.328Z,3.30
2023-10-17T01:33:18.356Z,3.03
2023-10-17T01:38:27.274Z,3.50
2023-10-17T01:43:36.647Z,3.05
2023-10-17T01:53:42.671Z,4.15
2023-10-17T01:59:08.149Z,3.17
2023-10-17T02:04:20.158Z,2.83
2023-10-17T02:09:22.447Z,2.55
2023-10-17T02:14:24.969Z,2.63
2023-10-17T02:19:27.708Z,2.42
2023-10-17T02:24:31.161Z,2.53
2023-10-17T02:29:36.530Z,2.55
2023-10-17T02:34:39.687Z,2.80
2023-10-17T02:39:42.141Z,2.75
2023-10-17T02:44:45.539Z,2.63
2023-10-17T02:49:48.471Z,2.33
2023-10-17T02:54:58.279Z,2.63
2023-10-17T03:00:20.820Z,2.60
2023-10-17T03:05:24.580Z,2.45
2023-10-17T03:10:39.029Z,2.40
2023-10-17T03:15:47.815Z,2.50
2023-10-17T03:20:53.897Z,2.30
2023-10-17T03:26:02.728Z,2.70
2023-10-17T03:31:12.600Z,2.40
2023-10-17T03:36:33.670Z,2.30
2023-10-17T03:41:38.732Z,2.42
2023-10-17T03:46:41.130Z,2.42
2023-10-17T03:51:48.341Z,2.22
2023-10-17T03:56:57.805Z,1.60
2023-10-17T04:07:05.063Z,2.20
2023-10-17T04:12:09.828Z,2.28
2023-10-17T04:17:15.994Z,2.00
2023-10-17T04:22:22.512Z,2.00
2023-10-17T04:27:32.683Z,2.17
2023-10-17T04:32:40.091Z,2.33
2023-10-17T04:37:46.582Z,2.78
2023-10-17T04:42:54.803Z,2.25
2023-10-17T04:48:13.827Z,1.88
2023-10-17T04:53:28.183Z,2.70
2023-10-17T04:58:41.413Z,2.10
2023-10-17T05:03:52.668Z,2.50
2023-10-17T05:09:13.612Z,2.53
2023-10-17T05:14:47.941Z,2.33
2023-10-17T05:20:08.828Z,2.10
2023-10-17T05:25:29.575Z,2.65
2023-10-17T05:30:50.793Z,2.60
2023-10-17T05:36:11.874Z,2.53
2023-10-17T05:41:38.814Z,2.83
2023-10-17T05:46:59.352Z,2.58
2023-10-17T05:52:20.077Z,2.70
2023-10-17T05:57:41.067Z,2.38
2023-10-17T06:03:02.000Z,2.40
2023-10-17T06:08:23.208Z,2.42
2023-10-17T06:13:44.168Z,1.90
2023-10-17T06:18:51.246Z,2.10
2023-10-17T06:24:19.941Z,1.83
2023-10-17T06:29:23.047Z,1.80
2023-10-17T06:34:26.263Z,2.13
2023-10-17T06:39:38.424Z,1.48
2023-10-17T06:44:53.424Z,2.10
2023-10-17T06:50:05.725Z,1.50
2023-10-17T06:55:09.676Z,1.55
2023-10-17T07:00:25.302Z,1.58
2023-10-17T07:05:28.310Z,2.10
2023-10-17T07:10:40.309Z,1.30
2023-10-17T07:15:43.569Z,1.67
2023-10-17T07:21:04.252Z,1.60
2023-10-17T07:26:11.544Z,1.98
2023-10-17T07:31:17.620Z,1.52
2023-10-17T07:36:20.428Z,1.58
2023-10-17T07:41:38.172Z,1.67
2023-10-17T07:46:47.791Z,1.80
2023-10-17T07:51:53.674Z,1.23
2023-10-17T07:57:00.403Z,1.17
2023-10-17T08:02:24.732Z,1.38
2023-10-17T08:07:27.182Z,1.10
2023-10-17T08:12:31.237Z,1.58
2023-10-17T08:17:36.546Z,1.52
2023-10-17T08:23:13.204Z,1.35
2023-10-17T08:28:33.271Z,1.70
2023-10-17T08:33:38.866Z,1.33
2023-10-17T08:38:46.048Z,2.42
2023-10-17T08:43:48.647Z,1.38
2023-10-17T08:48:58.853Z,1.50
2023-10-17T08:54:01.338Z,1.48
2023-10-17T08:59:45.076Z,1.48
2023-10-17T09:04:47.561Z,2.05
2023-10-17T09:09:57.187Z,1.48
2023-10-17T09:15:03.761Z,2.13
2023-10-17T09:20:34.859Z,1.85
2023-10-17T09:32:53.806Z,1.85
2023-10-17T10:15:53.340Z,1.33
2023-10-17T10:27:51.118Z,2.38
2023-10-17T10:32:57.330Z,2.57
2023-10-17T10:39:13.693Z,2.00
2023-10-17T10:56:43.297Z,1.83
2023-10-17T12:06:12.792Z,1.70
2023-10-17T12:17:10.417Z,1.80
2023-10-17T12:22:12.790Z,2.05
2023-10-17T12:27:15.496Z,1.80
2023-10-17T12:32:22.480Z,1.73
2023-10-17T12:37:24.919Z,1.50
2023-10-17T12:42:27.302Z,1.90
2023-10-17T12:47:30.893Z,2.10
2023-10-17T12:52:33.277Z,1.42
2023-10-17T12:57:37.895Z,1.88
2023-10-17T13:02:41.555Z,1.40
2023-10-17T13:07:44.096Z,1.48
2023-10-17T13:12:48.244Z,1.50
2023-10-17T13:17:56.976Z,2.28
2023-10-17T13:23:04.921Z,1.88
2023-10-17T13:28:08.769Z,2.55
2023-10-17T13:33:11.178Z,2.83
2023-10-17T13:38:13.578Z,2.55
2023-10-17T13:43:15.895Z,2.40
2023-10-17T13:48:18.305Z,2.25
2023-10-17T13:53:20.572Z,2.22
2023-10-17T13:58:22.764Z,3.30
2023-10-17T14:03:25.351Z,2.88
2023-10-17T14:08:28.268Z,2.67
2023-10-17T14:13:30.508Z,2.30
2023-10-17T14:18:42.195Z,2.22
2023-10-17T14:23:59.339Z,3.08
2023-10-17T14:29:05.094Z,3.05
2023-10-17T14:34:11.097Z,2.42
2023-10-17T14:39:13.400Z,2.78
2023-10-17T14:44:16.845Z,3.00
2023-10-17T14:49:19.371Z,3.42
2023-10-17T14:54:23.312Z,3.13
2023-10-17T14:59:25.657Z,4.10
2023-10-17T15:04:28.069Z,3.03
2023-10-17T15:09:30.640Z,3.08
2023-10-17T15:14:35.773Z,2.92
2023-10-17T15:19:38.755Z,2.85
2023-10-17T15:24:41.053Z,2.40
2023-10-17T15:29:43.285Z,2.10
2023-10-17T15:34:47.729Z,1.92
2023-10-17T15:39:50.438Z,3.20
2023-10-17T15:44:53.686Z,3.28
2023-10-17T15:49:55.970Z,3.47
2023-10-17T15:54:58.473Z,3.50
2023-10-17T16:00:00.926Z,2.75
2023-10-17T16:05:05.736Z,3.13
2023-10-17T16:10:10.338Z,2.65
2023-10-17T16:15:13.312Z,3.17
2023-10-17T16:20:16.253Z,2.55
2023-10-17T16:25:20.124Z,2.63
2023-10-17T16:30:22.566Z,3.33
2023-10-17T16:35:26.254Z,3.70
2023-10-17T16:40:28.579Z,4.25
2023-10-17T16:45:31.915Z,3.28
2023-10-17T16:50:34.738Z,3.10
2023-10-17T16:55:39.427Z,2.95
2023-10-17T17:00:43.477Z,4.15
2023-10-17T17:05:45.906Z,4.32
2023-10-17T17:10:48.205Z,4.82
2023-10-17T17:15:50.812Z,3.60
2023-10-17T17:20:54.556Z,3.45
2023-10-17T17:25:57.868Z,3.30
2023-10-17T17:31:00.579Z,3.42
2023-10-17T17:36:04.308Z,3.60
2023-10-17T17:41:07.092Z,4.32
2023-10-17T17:46:10.397Z,4.80
2023-10-17T17:51:16.087Z,4.30
2023-10-17T17:56:19.084Z,4.07
2023-10-17T18:01:22.857Z,4.28
2023-10-17T18:06:25.370Z,4.20
2023-10-17T18:11:28.159Z,4.78
2023-10-17T18:16:35.192Z,5.25
2023-10-17T18:21:37.902Z,6.07
2023-10-17T18:26:42.441Z,6.53
2023-10-17T18:31:45.029Z,6.40
2023-10-17T18:36:47.347Z,6.80
2023-10-17T18:41:51.324Z,5.63
2023-10-17T18:46:54.837Z,5.50
2023-10-17T18:51:59.515Z,5.38
2023-10-17T18:57:01.861Z,5.03
2023-10-17T19:02:04.302Z,6.50
2023-10-17T19:07:07.671Z,4.65
2023-10-17T19:12:09.983Z,3.75
2023-10-17T19:17:13.599Z,3.88
2023-10-17T19:22:15.927Z,3.90
2023-10-17T19:27:18.330Z,5.05
2023-10-17T19:32:20.581Z,4.25
2023-10-17T19:37:22.980Z,4.38
2023-10-17T19:42:25.433Z,4.10
2023-10-17T19:47:29.289Z,2.63
2023-10-17T19:52:32.276Z,2.70
2023-10-17T19:57:34.801Z,1.65
2023-10-17T20:02:37.549Z,1.80
2023-10-17T20:07:40.641Z,2.50
2023-10-17T20:12:43.274Z,2.00
2023-10-17T20:17:46.309Z,1.80
2023-10-17T20:22:48.616Z,1.80
2023-10-17T20:27:50.952Z,1.83
2023-10-17T20:32:53.922Z,1.80
2023-10-17T20:37:56.190Z,1.50
2023-10-17T20:42:59.061Z,1.50
2023-10-17T20:48:02.762Z,1.70
2023-10-17T20:53:06.168Z,1.83
2023-10-17T20:58:10.975Z,1.95
2023-10-17T21:03:14.375Z,1.95
2023-10-17T21:08:17.247Z,3.08
2023-10-17T21:13:19.618Z,3.78
2023-10-17T21:18:21.857Z,4.22
2023-10-17T21:23:24.054Z,4.00
2023-10-17T21:28:26.353Z,2.83
2023-10-17T21:33:31.264Z,1.88
2023-10-17T21:38:33.557Z,2.42
2023-10-17T21:43:35.907Z,1.05
2023-10-17T21:48:46.175Z,1.73
2023-10-17T21:53:50.202Z,1.77
2023-10-17T21:58:52.683Z,1.48
2023-10-17T22:03:55.015Z,0.40
2023-10-17T22:09:01.033Z,0.65
2023-10-17T22:14:03.529Z,2.63
2023-10-17T22:19:06.008Z,0.55
2023-10-17T22:24:08.811Z,0.40
2023-10-17T22:29:11.946Z,0.50
2023-10-17T22:34:14.647Z,0.20
2023-10-17T22:39:16.947Z,0.20
2023-10-17T22:44:19.381Z,0.20
2023-10-17T22:49:21.878Z,0.28
2023-10-17T22:54:24.226Z,0.20
2023-10-17T22:59:26.693Z,0.57
2023-10-17T23:04:29.714Z,0.35
2023-10-17T23:09:31.967Z,0.40
2023-10-17T23:14:34.319Z,0.10
2023-10-17T23:19:42.770Z,0.30
2023-10-17T23:24:45.151Z,0.20
2023-10-17T23:29:48.572Z,0.20
2023-10-17T23:34:50.803Z,0.28
2023-10-17T23:39:53.228Z,0.70
2023-10-17T23:44:55.557Z,0.20
2023-10-17T23:49:57.946Z,0.40
2023-10-17T23:55:00.208Z,0.30
